Accueil
METAR-TAF:

METAR-TAF

Aéroports :

Damas, Syrie

Aéroport international de Damas

latitude: 33-25N, longitude: 036-31E, altitude: 608 m

Observation

Le bulletin a été fait il y a 41 minutes, à 22:00 UTC
Vent 11 kt de sud/sud-ouest
Température 24°C
Humidité 38%
Pression 1010 hPa
Visibilité 10 km ou plus
pas de nuages en-dessous de 1500 mètres et pas de cumulonimbus.

METAR: OSDI 272200Z 21011KT CAVOK 24/09 Q1010

Heure: 01:41 (22:41 UTC)

Prévision

Prévision valable du 27 à 18 UTC au 28 à 24 UTC
Vent 3 kt de direction variable
Visibilité 10 km ou plus
pas de nuages en-dessous de 1500 mètres et pas de cumulonimbus.
Temporairement
du 28 à 12 UTC au 28 à 18 UTC
Vent 15 kt de ouest/sud-ouest
Visibilité: 8000 m
Quelques nuages à une hauteur de 3000 ft

TAF: OSDI 2718/2824 VRB03KT CAVOK TEMPO 2812/2818 24015KT 8000 FEW030

Observations et prévisions météorologiques de plus de 4000 aéroports (messages METAR et TAF).

Les stations disponibles sont représentées par des disques jaunes et rouges sur la carte.

Passer la souris dessus pour voir le nom de la station.

Cliquer dessus pour voir les observations et prévisions météorologiques.

Pour changer de carte: cliquez sur les boutons verts avec une croix noire pour zoomer, sur le bouton vert avec un tiret pour effectuer un zoom arrière, ou sur les flèches vertes pour les cartes adjacentes.


METAR-TAF: